createdAt,value
2023-05-23T00:00:07.674Z,18.3465
2023-05-23T00:01:15.562Z,18.3654
2023-05-23T00:02:23.694Z,18.3831
2023-05-23T00:03:31.715Z,18.4054
2023-05-23T00:04:39.889Z,18.4281
2023-05-23T00:05:47.911Z,18.4503
2023-05-23T00:06:56.075Z,18.4701
2023-05-23T00:08:03.752Z,18.4836
2023-05-23T00:09:11.996Z,18.5033
2023-05-23T00:10:19.874Z,18.5231
2023-05-23T00:11:28.308Z,18.5422
2023-05-23T00:12:36.148Z,18.5380
2023-05-23T00:13:44.212Z,18.5431
2023-05-23T00:14:52.235Z,18.5342
2023-05-23T00:16:00.478Z,18.5285
2023-05-23T00:17:08.504Z,18.5197
2023-05-23T00:18:16.465Z,18.5048
2023-05-23T00:19:24.414Z,18.4760
2023-05-23T00:20:32.550Z,18.4539
2023-05-23T00:21:40.714Z,18.4354
2023-05-23T00:22:48.729Z,18.4173
2023-05-23T00:23:56.741Z,18.4012
2023-05-23T00:25:04.920Z,18.3972
2023-05-23T00:26:12.888Z,18.3825
2023-05-23T00:27:20.909Z,18.3675
2023-05-23T00:28:29.020Z,18.3608
2023-05-23T00:29:37.109Z,18.3410
2023-05-23T00:30:45.065Z,18.3276
2023-05-23T00:31:53.311Z,18.3181
2023-05-23T00:33:01.506Z,18.2815
2023-05-23T00:34:09.249Z,18.2443
2023-05-23T00:35:17.398Z,18.2145
2023-05-23T00:36:25.392Z,18.1523
2023-05-23T00:37:33.610Z,18.1085
2023-05-23T00:38:41.731Z,18.0694
2023-05-23T00:39:49.675Z,18.0106
2023-05-23T00:40:57.735Z,17.9604
2023-05-23T00:42:05.727Z,17.9221
2023-05-23T00:43:14.003Z,17.8784
2023-05-23T00:44:22.560Z,17.8630
2023-05-23T00:45:29.993Z,17.8357
2023-05-23T00:46:38.339Z,17.8048
2023-05-23T00:47:46.151Z,17.7758
2023-05-23T00:48:54.192Z,17.7394
2023-05-23T00:50:02.241Z,17.7090
2023-05-23T00:51:10.445Z,17.6583
2023-05-23T00:52:18.410Z,17.6297
2023-05-23T00:53:26.674Z,17.5973
2023-05-23T00:54:34.460Z,17.6043
2023-05-23T00:55:42.689Z,17.5845
2023-05-23T00:56:50.641Z,17.5687
2023-05-23T00:57:58.692Z,17.5380
2023-05-23T00:59:06.623Z,17.5206
2023-05-23T01:00:14.775Z,17.5160
2023-05-23T01:01:23.044Z,17.5080
2023-05-23T01:02:30.977Z,17.4809
2023-05-23T01:03:39.153Z,17.4777
2023-05-23T01:04:46.882Z,17.4531
2023-05-23T01:05:55.187Z,17.4405
2023-05-23T01:07:03.216Z,17.4182
2023-05-23T01:08:11.243Z,17.4136
2023-05-23T01:09:19.300Z,17.4348
2023-05-23T01:10:27.451Z,17.4273
2023-05-23T01:11:35.438Z,17.4376
2023-05-23T01:12:43.486Z,17.4144
2023-05-23T01:13:51.503Z,17.3974
2023-05-23T01:14:59.567Z,17.3888
2023-05-23T01:16:07.655Z,17.3669
2023-05-23T01:17:15.649Z,17.3548
2023-05-23T01:18:23.766Z,17.3493
2023-05-23T01:19:31.683Z,17.3293
2023-05-23T01:20:39.855Z,17.3211
2023-05-23T01:21:47.936Z,17.3062
2023-05-23T01:22:55.895Z,17.2875
2023-05-23T01:24:04.051Z,17.2671
2023-05-23T01:25:12.057Z,17.2536
2023-05-23T01:26:20.323Z,17.2530
2023-05-23T01:27:28.222Z,17.2312
2023-05-23T01:28:36.362Z,17.2269
2023-05-23T01:29:44.391Z,17.2076
2023-05-23T01:30:52.442Z,17.1853
2023-05-23T01:32:00.497Z,17.1664
2023-05-23T01:33:08.592Z,17.1576
2023-05-23T01:34:16.478Z,17.1620
2023-05-23T01:35:24.688Z,17.1386
2023-05-23T01:36:32.715Z,17.1342
2023-05-23T01:37:40.761Z,17.1206
2023-05-23T01:38:49.036Z,17.1214
2023-05-23T01:39:56.774Z,17.1126
2023-05-23T01:41:05.046Z,17.1107
2023-05-23T01:42:13.072Z,17.1014
2023-05-23T01:43:21.051Z,17.0733
2023-05-23T01:44:29.268Z,17.0672
2023-05-23T01:45:37.207Z,17.0529
2023-05-23T01:46:45.240Z,17.0457
2023-05-23T01:47:53.379Z,17.0243
2023-05-23T01:49:01.522Z,17.0176
2023-05-23T01:50:09.392Z,17.0279
2023-05-23T01:51:17.354Z,17.0298
2023-05-23T01:52:25.534Z,17.0136
2023-05-23T01:53:33.603Z,17.0285
2023-05-23T01:54:41.941Z,17.0296
2023-05-23T01:55:49.724Z,17.0384
2023-05-23T01:56:57.699Z,17.0296
2023-05-23T01:58:05.798Z,17.0386
2023-05-23T01:59:13.864Z,17.0422
2023-05-23T02:00:22.005Z,17.0352
2023-05-23T02:01:30.048Z,17.0481
2023-05-23T02:02:38.230Z,17.0380
2023-05-23T02:03:46.136Z,17.0363
2023-05-23T02:04:54.248Z,17.0520
2023-05-23T02:06:02.310Z,17.0556
2023-05-23T02:07:10.287Z,17.0579
2023-05-23T02:08:18.355Z,17.0565
2023-05-23T02:09:26.523Z,17.0731
2023-05-23T02:10:34.571Z,17.0760
2023-05-23T02:11:42.546Z,17.0853
2023-05-23T02:12:50.714Z,17.0834
2023-05-23T02:13:58.654Z,17.0947
2023-05-23T02:15:06.712Z,17.1078
2023-05-23T02:16:14.969Z,17.1017
2023-05-23T02:17:22.897Z,17.1168
2023-05-23T02:18:30.915Z,17.1263
2023-05-23T02:19:38.906Z,17.1305
2023-05-23T02:20:47.030Z,17.1580
2023-05-23T02:21:55.136Z,17.1561
2023-05-23T02:23:03.157Z,17.1651
2023-05-23T02:24:11.453Z,17.1685
2023-05-23T02:25:19.326Z,17.1736
2023-05-23T02:26:27.367Z,17.1685
2023-05-23T02:27:35.419Z,17.1723
2023-05-23T02:28:43.391Z,17.1763
2023-05-23T02:29:51.506Z,17.1740
2023-05-23T02:30:59.806Z,17.1752
2023-05-23T02:32:07.663Z,17.1799
2023-05-23T02:33:15.764Z,17.1864
2023-05-23T02:34:23.889Z,17.1969
2023-05-23T02:35:31.822Z,17.1931
2023-05-23T02:36:39.925Z,17.1998
2023-05-23T02:37:47.921Z,17.1971
2023-05-23T02:38:56.211Z,17.1969
2023-05-23T02:40:03.924Z,17.1872
2023-05-23T02:41:12.187Z,17.1695
2023-05-23T02:42:20.208Z,17.1365
2023-05-23T02:43:28.091Z,17.1225
2023-05-23T02:44:36.372Z,17.1012
2023-05-23T02:45:44.389Z,17.0861
2023-05-23T02:46:52.629Z,17.0644
2023-05-23T02:48:00.458Z,17.0426
2023-05-23T02:49:08.546Z,17.0235
2023-05-23T02:50:16.552Z,16.9886
2023-05-23T02:51:24.531Z,16.9707
2023-05-23T02:52:32.722Z,16.9350
2023-05-23T02:53:40.902Z,16.9188
2023-05-23T02:54:48.664Z,16.8896
2023-05-23T02:55:56.867Z,16.8694
2023-05-23T02:57:04.969Z,16.8517
2023-05-23T02:58:12.969Z,16.8473
2023-05-23T02:59:21.050Z,16.8372
2023-05-23T03:00:29.155Z,16.8244
2023-05-23T03:01:37.138Z,16.8124
2023-05-23T03:02:45.472Z,16.8069
2023-05-23T03:03:53.256Z,16.7968
2023-05-23T03:05:01.308Z,16.7855
2023-05-23T03:06:09.256Z,16.7800
2023-05-23T03:07:27.486Z,16.7975
2023-05-23T03:08:30.351Z,16.8141
2023-05-23T03:09:38.394Z,16.8252
2023-05-23T03:10:46.464Z,16.8383
2023-05-23T03:11:54.643Z,16.8557
2023-05-23T03:13:02.635Z,16.8801
2023-05-23T03:14:10.634Z,16.8969
2023-05-23T03:15:18.712Z,16.9339
2023-05-23T03:16:26.862Z,16.9699
2023-05-23T03:17:34.697Z,17.0371
2023-05-23T03:18:42.925Z,17.0769
2023-05-23T03:19:50.955Z,17.1168
2023-05-23T03:20:59.009Z,17.1561
2023-05-23T03:22:07.207Z,17.1979
2023-05-23T03:23:15.146Z,17.2484
2023-05-23T03:24:23.185Z,17.2812
2023-05-23T03:25:31.263Z,17.3047
2023-05-23T03:26:39.285Z,17.3285
2023-05-23T03:27:47.321Z,17.3486
2023-05-23T03:28:55.463Z,17.3629
2023-05-23T03:30:03.704Z,17.3785
2023-05-23T03:31:11.601Z,17.3762
2023-05-23T03:32:19.660Z,17.3821
2023-05-23T03:33:27.631Z,17.3871
2023-05-23T03:34:35.714Z,17.3905
2023-05-23T03:35:43.734Z,17.3945
2023-05-23T03:36:51.808Z,17.4065
2023-05-23T03:37:59.701Z,17.4210
2023-05-23T03:39:07.968Z,17.4149
2023-05-23T03:40:16.019Z,17.4317
2023-05-23T03:41:24.022Z,17.4443
2023-05-23T03:42:32.159Z,17.4676
2023-05-23T03:43:40.023Z,17.4952
2023-05-23T03:44:48.447Z,17.5130
2023-05-23T03:45:56.369Z,17.5376
2023-05-23T03:47:04.366Z,17.5605
2023-05-23T03:48:12.474Z,17.5824
2023-05-23T03:49:20.289Z,17.6129
2023-05-23T03:50:28.731Z,17.6348
2023-05-23T03:51:36.551Z,17.6776
2023-05-23T03:52:44.491Z,17.7077
2023-05-23T03:53:52.684Z,17.7443
2023-05-23T03:55:00.632Z,17.7773
2023-05-23T03:56:08.777Z,17.7958
2023-05-23T03:57:16.851Z,17.8058
2023-05-23T03:58:24.757Z,17.8239
2023-05-23T03:59:32.965Z,17.8344
2023-05-23T04:00:41.356Z,17.8498
2023-05-23T04:01:49.078Z,17.8624
2023-05-23T04:02:57.198Z,17.8838
2023-05-23T04:04:05.377Z,17.9021
2023-05-23T04:05:13.482Z,17.9397
2023-05-23T04:06:21.309Z,17.9585
2023-05-23T04:07:29.409Z,17.9850
2023-05-23T04:08:37.515Z,18.0249
2023-05-23T04:09:45.681Z,18.0449
2023-05-23T04:10:53.564Z,18.0652
2023-05-23T04:12:01.608Z,18.0867
2023-05-23T04:13:09.700Z,18.1029
2023-05-23T04:14:18.027Z,18.1332
2023-05-23T04:15:25.942Z,18.1641
2023-05-23T04:16:33.949Z,18.1849
2023-05-23T04:17:41.917Z,18.1994
2023-05-23T04:18:50.106Z,18.2393
2023-05-23T04:19:58.091Z,18.2656
2023-05-23T04:21:06.090Z,18.2904
2023-05-23T04:22:14.107Z,18.3022
2023-05-23T04:23:22.215Z,18.3221
2023-05-23T04:24:30.254Z,18.3328
2023-05-23T04:25:38.396Z,18.3459
2023-05-23T04:26:46.598Z,18.3526
2023-05-23T04:27:54.418Z,18.3665
2023-05-23T04:29:02.581Z,18.3833
2023-05-23T04:30:10.517Z,18.4005
2023-05-23T04:31:18.683Z,18.4073
2023-05-23T04:32:26.554Z,18.4365
2023-05-23T04:33:35.140Z,18.4659
2023-05-23T04:34:42.762Z,18.4869
2023-05-23T04:35:50.965Z,18.5086
2023-05-23T04:36:58.971Z,18.5430
2023-05-23T04:38:06.960Z,18.5567
2023-05-23T04:39:14.938Z,18.5853
2023-05-23T04:40:23.114Z,18.6030
2023-05-23T04:41:31.287Z,18.6389
2023-05-23T04:42:39.228Z,18.6679
2023-05-23T04:43:47.286Z,18.6820
2023-05-23T04:44:55.216Z,18.7280
2023-05-23T04:46:03.414Z,18.7585
2023-05-23T04:47:11.563Z,18.7840
2023-05-23T04:48:19.717Z,18.8043
2023-05-23T04:49:27.578Z,18.8190
2023-05-23T04:50:35.496Z,18.8331
2023-05-23T04:51:43.836Z,18.8483
2023-05-23T04:52:51.761Z,18.8582
2023-05-23T04:53:59.792Z,18.8787
2023-05-23T04:55:07.908Z,18.9107
2023-05-23T04:56:15.827Z,18.9284
2023-05-23T04:57:23.996Z,18.9624
2023-05-23T04:58:31.918Z,18.9914
2023-05-23T04:59:40.151Z,19.0097
2023-05-23T05:00:48.224Z,19.0221
2023-05-23T05:01:56.297Z,19.0476
2023-05-23T05:03:04.313Z,19.0702
2023-05-23T05:04:12.402Z,19.0864
2023-05-23T05:05:20.408Z,19.1188
2023-05-23T05:06:28.557Z,19.1314
2023-05-23T05:07:36.634Z,19.1682
2023-05-23T05:08:44.583Z,19.2023
2023-05-23T05:09:52.709Z,19.2351
2023-05-23T05:11:00.612Z,19.2472
2023-05-23T05:12:08.830Z,19.2765
2023-05-23T05:13:16.882Z,19.2937
2023-05-23T05:14:24.874Z,19.3063
2023-05-23T05:15:32.929Z,19.3275
2023-05-23T05:16:40.912Z,19.3410
2023-05-23T05:17:49.960Z,19.3490
2023-05-23T05:18:57.009Z,19.3568
2023-05-23T05:20:05.197Z,19.3711
2023-05-23T05:21:13.365Z,19.3786
2023-05-23T05:22:21.300Z,19.4017
2023-05-23T05:23:29.421Z,19.4135
2023-05-23T05:24:37.259Z,19.4263
2023-05-23T05:25:45.436Z,19.4432
2023-05-23T05:26:53.500Z,19.4482
2023-05-23T05:28:01.478Z,19.4686
2023-05-23T05:29:09.968Z,19.4938
2023-05-23T05:30:17.551Z,19.5207
2023-05-23T05:31:25.816Z,19.5359
2023-05-23T05:32:33.890Z,19.5615
2023-05-23T05:33:41.842Z,19.5815
2023-05-23T05:34:49.980Z,19.5993
2023-05-23T05:35:57.946Z,19.6235
2023-05-23T05:37:06.045Z,19.6406
2023-05-23T05:38:14.534Z,19.6571
2023-05-23T05:39:22.357Z,19.6632
2023-05-23T05:40:30.188Z,19.6624
2023-05-23T05:41:38.279Z,19.6353
2023-05-23T05:42:46.381Z,19.6364
2023-05-23T05:43:54.384Z,19.6225
2023-05-23T05:45:02.318Z,19.6010
2023-05-23T05:46:10.535Z,19.5954
2023-05-23T05:47:18.722Z,19.5796
2023-05-23T05:48:26.722Z,19.5577
2023-05-23T05:49:34.679Z,19.5338
2023-05-23T05:50:42.727Z,19.5233
2023-05-23T05:51:50.827Z,19.4926
2023-05-23T05:52:58.887Z,19.4730
2023-05-23T05:54:06.918Z,19.4312
2023-05-23T05:55:15.016Z,19.4074
2023-05-23T05:56:23.145Z,19.4001
2023-05-23T05:57:31.304Z,19.3793
2023-05-23T05:58:39.146Z,19.3721
2023-05-23T05:59:47.049Z,19.3599
2023-05-23T06:00:55.236Z,19.3578
2023-05-23T06:02:03.172Z,19.3547
2023-05-23T06:03:11.513Z,19.3441
2023-05-23T06:04:19.476Z,19.3494
2023-05-23T06:05:27.481Z,19.3519
2023-05-23T06:06:35.732Z,19.3620
2023-05-23T06:07:43.572Z,19.3727
2023-05-23T06:08:51.637Z,19.3982
2023-05-23T06:09:59.808Z,19.4467
2023-05-23T06:11:07.870Z,19.4993
2023-05-23T06:12:15.791Z,19.5758
2023-05-23T06:13:23.941Z,19.6702
2023-05-23T06:14:32.010Z,19.7816
2023-05-23T06:15:39.983Z,19.8648
2023-05-23T06:16:48.131Z,19.9912
2023-05-23T06:17:56.259Z,20.1036
2023-05-23T06:19:04.248Z,20.2146
2023-05-23T06:20:12.248Z,20.3046
2023-05-23T06:21:20.297Z,20.3820
2023-05-23T06:22:28.169Z,20.4955
2023-05-23T06:23:36.449Z,20.5989
2023-05-23T06:24:44.460Z,20.7036
2023-05-23T06:25:52.628Z,20.8007
2023-05-23T06:27:00.628Z,20.8421
2023-05-23T06:28:08.631Z,20.8881
2023-05-23T06:29:16.725Z,20.9359
2023-05-23T06:30:24.761Z,20.9834
2023-05-23T06:31:32.818Z,21.0323
2023-05-23T06:32:40.953Z,21.0706
2023-05-23T06:33:48.828Z,21.0908
2023-05-23T06:34:57.026Z,21.1288
2023-05-23T06:36:05.048Z,21.1627
2023-05-23T06:37:13.103Z,21.1946
2023-05-23T06:38:21.189Z,21.2497
2023-05-23T06:39:29.278Z,21.2772
2023-05-23T06:40:37.266Z,21.2974
2023-05-23T06:41:45.351Z,21.3233
2023-05-23T06:42:53.428Z,21.3367
2023-05-23T06:44:01.467Z,21.3420
2023-05-23T06:45:09.534Z,21.3508
2023-05-23T06:46:17.490Z,21.3453
2023-05-23T06:47:25.867Z,21.3361
2023-05-23T06:48:33.571Z,21.3178
2023-05-23T06:49:41.873Z,21.2617
2023-05-23T06:50:49.823Z,21.2144
2023-05-23T06:51:57.913Z,21.1194
2023-05-23T06:53:06.047Z,21.0626
2023-05-23T06:54:13.892Z,20.9520
2023-05-23T06:55:22.086Z,20.8694
2023-05-23T06:56:30.133Z,20.8269
2023-05-23T06:57:38.170Z,20.7732
2023-05-23T06:58:47.249Z,20.7288
2023-05-23T06:59:54.201Z,20.6516
2023-05-23T07:01:02.397Z,20.6111
2023-05-23T07:02:10.435Z,20.5951
2023-05-23T07:03:18.522Z,20.5724
2023-05-23T07:04:26.560Z,20.5682
2023-05-23T07:05:34.708Z,20.5480
2023-05-23T07:06:42.847Z,20.5360
2023-05-23T07:07:50.740Z,20.5383
2023-05-23T07:08:58.761Z,20.5434
2023-05-23T07:10:06.876Z,20.5634
2023-05-23T07:11:15.018Z,20.5972
2023-05-23T07:12:23.000Z,20.6285
2023-05-23T07:13:31.075Z,20.6981
2023-05-23T07:14:39.248Z,20.7918
2023-05-23T07:15:47.329Z,20.8375
2023-05-23T07:16:55.310Z,20.8955
2023-05-23T07:18:03.289Z,20.9831
2023-05-23T07:19:11.401Z,21.1006
2023-05-23T07:20:19.401Z,21.2129
2023-05-23T07:21:27.512Z,21.3186
2023-05-23T07:22:35.381Z,21.3901
2023-05-23T07:23:43.456Z,21.4965
2023-05-23T07:24:51.629Z,21.5770
2023-05-23T07:26:02.963Z,21.6566
2023-05-23T07:27:12.631Z,21.7465
2023-05-23T07:28:20.675Z,21.8116
2023-05-23T07:29:28.767Z,21.8540
2023-05-23T07:30:36.873Z,21.9287
2023-05-23T07:31:44.949Z,22.0190
2023-05-23T07:32:53.077Z,22.0857
2023-05-23T07:34:01.018Z,22.1355
2023-05-23T07:35:09.041Z,22.1984
2023-05-23T07:36:17.141Z,22.2139
2023-05-23T07:37:25.202Z,22.2322
2023-05-23T07:38:33.101Z,22.2328
2023-05-23T07:39:41.440Z,22.2198
2023-05-23T07:40:58.844Z,22.1931
2023-05-23T07:42:02.470Z,22.1778
2023-05-23T07:43:10.335Z,22.1611
2023-05-23T07:44:18.388Z,22.1237
2023-05-23T07:45:26.429Z,22.1117
2023-05-23T07:46:34.389Z,22.0867
2023-05-23T07:47:42.828Z,22.0527
2023-05-23T07:48:50.635Z,22.0102
2023-05-23T07:49:58.646Z,21.9686
2023-05-23T07:51:06.816Z,21.9215
2023-05-23T07:52:14.919Z,21.8830
2023-05-23T07:53:22.930Z,21.8565
2023-05-23T07:54:30.938Z,21.8364
2023-05-23T07:55:38.989Z,21.8172
2023-05-23T07:56:47.175Z,21.8017
2023-05-23T07:57:55.103Z,21.7914
2023-05-23T07:59:03.185Z,21.7554
2023-05-23T08:00:11.306Z,21.7388
2023-05-23T08:01:19.325Z,21.6930
2023-05-23T08:02:27.420Z,21.6627
2023-05-23T08:03:35.374Z,21.6192
2023-05-23T08:04:43.492Z,21.5763
2023-05-23T08:05:51.542Z,21.5478
2023-05-23T08:07:05.485Z,21.5164
2023-05-23T08:08:12.546Z,21.4842
2023-05-23T08:09:20.754Z,21.4664
2023-05-23T08:10:28.479Z,21.4572
2023-05-23T08:11:36.798Z,21.4506
2023-05-23T08:12:44.713Z,21.4246
2023-05-23T08:13:52.976Z,21.4055
2023-05-23T08:15:00.863Z,21.4071
2023-05-23T08:16:08.944Z,21.3947
2023-05-23T08:17:17.050Z,21.3893
2023-05-23T08:18:25.045Z,21.3979
2023-05-23T08:19:33.290Z,21.3979
2023-05-23T08:20:41.390Z,21.4124
2023-05-23T08:21:49.070Z,21.4260
2023-05-23T08:22:57.534Z,21.4597
2023-05-23T08:24:05.343Z,21.4925
2023-05-23T08:25:13.375Z,21.5364
2023-05-23T08:26:21.490Z,21.5869
2023-05-23T08:27:29.379Z,21.6545
2023-05-23T08:28:37.581Z,21.7386
2023-05-23T08:29:45.668Z,21.8236
2023-05-23T08:30:53.714Z,21.9436
2023-05-23T08:32:01.830Z,22.1128
2023-05-23T08:33:09.691Z,22.2753
2023-05-23T08:34:17.893Z,22.3701
2023-05-23T08:35:25.939Z,22.4828
2023-05-23T08:36:33.986Z,22.5925
2023-05-23T08:37:42.238Z,22.7222
2023-05-23T08:38:50.010Z,22.8414
2023-05-23T08:39:58.170Z,23.0432
2023-05-23T08:41:06.196Z,23.3581
2023-05-23T08:42:14.614Z,23.6812
2023-05-23T08:43:22.390Z,24.0383
2023-05-23T08:44:30.476Z,24.3616
2023-05-23T08:45:38.509Z,24.4600
2023-05-23T08:46:46.704Z,24.4606
2023-05-23T08:47:54.750Z,24.4032
2023-05-23T08:49:02.785Z,24.3500
2023-05-23T08:50:10.987Z,24.3025
2023-05-23T08:51:18.907Z,24.2598
2023-05-23T08:52:27.009Z,24.2393
2023-05-23T08:53:34.824Z,24.2289
2023-05-23T08:54:43.040Z,24.2363
2023-05-23T08:55:51.113Z,24.2754
2023-05-23T08:56:59.008Z,24.3191
2023-05-23T08:58:07.215Z,24.3889
2023-05-23T08:59:15.140Z,24.5027
2023-05-23T09:00:23.435Z,24.6012
2023-05-23T09:01:31.642Z,24.7082
2023-05-23T09:02:39.494Z,24.7982
2023-05-23T09:03:47.486Z,24.8341
2023-05-23T09:04:55.431Z,24.8566
2023-05-23T09:06:03.733Z,24.9239
2023-05-23T09:07:11.929Z,25.0486
2023-05-23T09:08:19.752Z,25.1060
2023-05-23T09:09:27.794Z,25.1493
2023-05-23T09:10:35.924Z,25.2005
2023-05-23T09:11:43.936Z,25.2319
2023-05-23T09:12:51.975Z,25.2478
2023-05-23T09:13:59.934Z,25.2579
2023-05-23T09:15:08.107Z,25.2550
2023-05-23T09:16:16.052Z,25.2657
2023-05-23T09:17:24.383Z,25.2735
2023-05-23T09:18:32.332Z,25.2913
2023-05-23T09:19:40.413Z,25.3153
2023-05-23T09:20:48.429Z,25.3420
2023-05-23T09:21:56.487Z,25.3817
2023-05-23T09:23:04.552Z,25.4196
2023-05-23T09:24:12.847Z,25.4477
2023-05-23T09:25:20.507Z,25.4749
2023-05-23T09:26:28.750Z,25.5032
2023-05-23T09:27:36.770Z,25.5516
2023-05-23T09:28:44.756Z,25.5818
2023-05-23T09:29:52.902Z,25.5833
2023-05-23T09:31:01.068Z,25.5444
2023-05-23T09:32:09.300Z,25.4507
2023-05-23T09:33:17.183Z,25.3742
2023-05-23T09:34:25.142Z,25.3372
2023-05-23T09:35:33.177Z,25.3359
2023-05-23T09:36:41.157Z,25.3569
2023-05-23T09:37:49.333Z,25.4034
2023-05-23T09:38:57.415Z,25.4454
2023-05-23T09:40:05.564Z,25.4656
2023-05-23T09:41:13.496Z,25.4763
2023-05-23T09:42:21.437Z,25.4646
2023-05-23T09:43:29.747Z,25.4936
2023-05-23T09:44:37.698Z,25.5335
2023-05-23T09:45:45.796Z,25.5531
2023-05-23T09:46:53.963Z,25.5566
2023-05-23T09:48:01.895Z,25.5552
2023-05-23T09:49:10.088Z,25.5632
2023-05-23T09:50:18.048Z,25.5854
2023-05-23T09:51:26.046Z,25.6245
2023-05-23T09:52:34.076Z,25.6394
2023-05-23T09:53:42.273Z,25.6539
2023-05-23T09:54:50.096Z,25.6416
2023-05-23T09:55:58.259Z,25.7158
2023-05-23T09:57:07.181Z,25.9434
2023-05-23T09:58:14.427Z,26.5448
2023-05-23T09:59:22.517Z,27.3817
2023-05-23T10:00:30.391Z,28.3169
2023-05-23T10:01:38.812Z,29.2584
2023-05-23T10:02:46.607Z,30.1087
2023-05-23T10:03:55.567Z,30.8467
2023-05-23T10:05:02.807Z,31.6445
2023-05-23T10:06:10.701Z,32.3705
2023-05-23T10:07:18.908Z,33.0323
2023-05-23T10:08:26.807Z,33.6589
2023-05-23T10:09:35.264Z,34.3021
2023-05-23T10:10:43.245Z,34.8959
2023-05-23T10:11:51.147Z,35.4538
2023-05-23T10:12:59.254Z,35.9773
2023-05-23T10:14:07.237Z,36.5044
2023-05-23T10:15:15.397Z,36.9604
2023-05-23T10:16:23.424Z,37.3098
2023-05-23T10:17:31.488Z,37.4870
2023-05-23T10:18:39.729Z,37.0983
2023-05-23T10:19:47.601Z,37.0514
2023-05-23T10:20:55.806Z,37.3652
2023-05-23T10:22:03.752Z,37.6919
2023-05-23T10:23:11.907Z,38.0571
2023-05-23T10:24:19.904Z,38.4308
2023-05-23T10:25:27.932Z,38.8159
2023-05-23T10:26:35.909Z,39.2115
2023-05-23T10:27:44.311Z,39.5768
2023-05-23T10:28:52.235Z,39.9014
2023-05-23T10:30:00.221Z,40.2035
2023-05-23T10:31:08.325Z,40.4707
2023-05-23T10:32:16.404Z,40.7231
2023-05-23T10:33:24.379Z,40.8843
2023-05-23T10:34:32.355Z,41.0710
2023-05-23T10:35:40.578Z,41.2182
2023-05-23T10:36:48.631Z,41.1282
2023-05-23T10:37:56.519Z,40.9436
2023-05-23T10:39:04.716Z,41.1419
2023-05-23T10:40:12.659Z,41.4202
2023-05-23T10:41:20.833Z,41.3640
2023-05-23T10:42:28.971Z,40.8269
2023-05-23T10:43:36.864Z,39.7648
2023-05-23T10:44:45.132Z,38.6999
2023-05-23T10:45:53.002Z,37.6585
2023-05-23T10:47:01.273Z,36.6962
2023-05-23T10:48:09.283Z,35.7933
2023-05-23T10:49:17.300Z,34.9792
2023-05-23T10:50:25.371Z,34.2363
2023-05-23T10:51:33.454Z,33.5737
2023-05-23T10:52:41.554Z,33.0018
2023-05-23T10:53:49.579Z,32.4838
2023-05-23T10:54:57.676Z,32.0487
2023-05-23T10:56:05.747Z,31.6424
2023-05-23T10:57:13.760Z,31.2718
2023-05-23T10:58:21.762Z,30.9430
2023-05-23T10:59:29.964Z,30.6607
2023-05-23T11:00:37.987Z,30.3849
2023-05-23T11:01:46.006Z,30.1638
2023-05-23T11:02:54.155Z,30.0425
2023-05-23T11:04:02.306Z,29.9813
2023-05-23T11:05:10.194Z,30.7261
2023-05-23T11:06:18.254Z,31.6619
2023-05-23T11:07:26.499Z,32.4060
2023-05-23T11:08:46.715Z,32.9437
2023-05-23T11:09:47.277Z,33.4779
2023-05-23T11:10:55.330Z,33.8119
2023-05-23T11:12:03.439Z,34.0290
2023-05-23T11:13:11.634Z,34.1987
2023-05-23T11:14:19.845Z,34.3074
2023-05-23T11:15:27.584Z,34.3256
2023-05-23T11:16:35.669Z,34.1905
2023-05-23T11:17:43.917Z,33.8798
2023-05-23T11:18:51.747Z,33.5805
2023-05-23T11:19:59.889Z,33.2874
2023-05-23T11:21:07.936Z,33.0522
2023-05-23T11:22:16.061Z,32.8538
2023-05-23T11:23:24.083Z,32.6814
2023-05-23T11:24:32.205Z,32.3897
2023-05-23T11:25:40.290Z,32.1258
2023-05-23T11:26:48.179Z,31.8734
2023-05-23T11:27:56.248Z,31.7494
2023-05-23T11:29:04.471Z,31.7058
2023-05-23T11:30:12.716Z,31.8288
2023-05-23T11:31:20.619Z,32.1061
2023-05-23T11:32:28.787Z,32.2158
2023-05-23T11:33:36.699Z,32.3053
2023-05-23T11:34:44.815Z,32.2141
2023-05-23T11:35:52.698Z,31.9741
2023-05-23T11:37:00.844Z,31.6646
2023-05-23T11:38:09.059Z,31.3132
2023-05-23T11:39:17.000Z,31.0164
2023-05-23T11:40:25.120Z,30.7662
2023-05-23T11:41:33.170Z,30.5249
2023-05-23T11:42:41.217Z,30.3435
2023-05-23T11:43:49.246Z,30.1726
2023-05-23T11:44:57.463Z,29.9725
2023-05-23T11:46:05.467Z,29.8245
2023-05-23T11:47:13.448Z,29.6742
2023-05-23T11:48:21.512Z,29.4871
2023-05-23T11:49:29.717Z,29.3294
2023-05-23T11:50:37.559Z,29.1228
2023-05-23T11:51:45.740Z,28.9019
2023-05-23T11:52:53.809Z,28.7017
2023-05-23T11:54:01.926Z,28.4480
2023-05-23T11:55:09.801Z,28.2284
2023-05-23T11:56:18.101Z,27.9793
2023-05-23T11:57:26.140Z,27.7516
2023-05-23T11:58:34.149Z,27.5183
2023-05-23T11:59:42.261Z,27.2980
2023-05-23T12:00:50.798Z,27.1042
2023-05-23T12:01:58.341Z,26.8973
2023-05-23T12:03:06.483Z,26.7456
2023-05-23T12:04:14.514Z,26.5627
2023-05-23T12:05:22.618Z,26.4408
2023-05-23T12:06:30.606Z,26.3579
2023-05-23T12:07:38.651Z,26.2957
2023-05-23T12:08:46.702Z,26.2446
2023-05-23T12:09:54.800Z,26.1814
2023-05-23T12:11:02.904Z,26.1587
2023-05-23T12:12:11.039Z,26.1873
2023-05-23T12:13:18.935Z,26.2652
2023-05-23T12:14:27.207Z,26.6568
2023-05-23T12:15:35.080Z,26.9369
2023-05-23T12:16:43.274Z,27.3222
2023-05-23T12:17:51.234Z,27.8372
2023-05-23T12:18:59.229Z,27.8687
2023-05-23T12:20:07.352Z,27.8277
2023-05-23T12:21:15.384Z,27.6700
2023-05-23T12:22:23.358Z,27.3865
2023-05-23T12:23:34.503Z,27.1694
2023-05-23T12:24:44.304Z,26.9648
2023-05-23T12:25:52.562Z,26.7910
2023-05-23T12:27:00.556Z,26.5757
2023-05-23T12:28:08.601Z,26.3857
2023-05-23T12:29:16.559Z,26.2648
2023-05-23T12:30:24.680Z,26.1038
2023-05-23T12:31:32.986Z,25.9800
2023-05-23T12:32:41.191Z,25.8972
2023-05-23T12:33:49.792Z,25.8381
2023-05-23T12:34:57.122Z,25.8011
2023-05-23T12:36:05.299Z,25.7622
2023-05-23T12:37:19.428Z,25.7052
2023-05-23T12:38:26.089Z,25.6167
2023-05-23T12:39:34.003Z,25.5783
2023-05-23T12:40:42.160Z,25.5396
2023-05-23T12:41:50.277Z,25.5087
2023-05-23T12:42:58.165Z,25.4849
2023-05-23T12:44:06.358Z,25.4738
2023-05-23T12:45:14.639Z,25.4789
2023-05-23T12:46:22.745Z,25.5734
2023-05-23T12:47:30.671Z,26.0573
2023-05-23T12:48:38.565Z,26.7729
2023-05-23T12:49:46.668Z,27.8628
2023-05-23T12:50:54.644Z,28.9439
2023-05-23T12:52:02.778Z,29.9208
2023-05-23T12:53:10.958Z,30.7830
2023-05-23T12:54:19.089Z,31.0016
2023-05-23T12:55:27.029Z,30.8421
2023-05-23T12:56:35.048Z,30.6208
2023-05-23T12:57:43.193Z,30.3290
2023-05-23T12:58:51.321Z,30.0105
2023-05-23T12:59:59.337Z,29.7915
2023-05-23T13:01:07.430Z,29.6294
2023-05-23T13:02:15.506Z,29.6338
2023-05-23T13:03:23.760Z,29.7900
2023-05-23T13:04:32.615Z,29.6944
2023-05-23T13:05:40.235Z,29.5884
2023-05-23T13:06:47.732Z,29.5634
2023-05-23T13:07:55.766Z,29.7332
2023-05-23T13:09:03.707Z,30.2937
2023-05-23T13:10:12.028Z,30.3330
2023-05-23T13:11:19.890Z,30.2954
2023-05-23T13:12:28.106Z,30.1560
2023-05-23T13:13:36.237Z,29.9479
2023-05-23T13:14:44.255Z,29.7416
2023-05-23T13:15:52.323Z,29.5115
2023-05-23T13:17:00.745Z,29.3126
2023-05-23T13:18:08.443Z,29.0572
2023-05-23T13:19:16.482Z,28.8293
2023-05-23T13:20:24.594Z,28.6082
2023-05-23T13:21:32.589Z,28.3875
2023-05-23T13:22:40.508Z,28.1432
2023-05-23T13:23:48.845Z,27.8552
2023-05-23T13:24:56.811Z,27.5662
2023-05-23T13:26:04.875Z,27.3112
2023-05-23T13:27:12.999Z,27.0684
2023-05-23T13:28:20.961Z,26.8536
2023-05-23T13:29:29.014Z,26.6806
2023-05-23T13:30:36.966Z,26.5217
2023-05-23T13:31:45.324Z,26.3911
2023-05-23T13:32:53.300Z,26.3809
2023-05-23T13:34:01.333Z,26.4008
2023-05-23T13:35:09.345Z,26.3699
2023-05-23T13:36:17.408Z,26.2869
2023-05-23T13:37:25.505Z,26.1515
2023-05-23T13:38:33.676Z,25.9833
2023-05-23T13:39:41.729Z,25.8284
2023-05-23T13:40:51.362Z,25.6914
2023-05-23T13:41:57.767Z,25.5489
2023-05-23T13:43:05.772Z,25.4004